createdAt,value
2018-03-14T00:08:28.972Z,4.5
2018-03-14T00:18:51.691Z,4.5
2018-03-14T00:30:05.738Z,4.5
2018-03-14T00:40:18.847Z,4.5
2018-03-14T01:00:49.418Z,4.4
2018-03-14T01:11:01.369Z,4.4
2018-03-14T01:21:13.387Z,4.4
2018-03-14T01:33:40.031Z,4.4
2018-03-14T01:43:51.668Z,4.3
2018-03-14T01:54:04.435Z,4.3
2018-03-14T02:04:16.804Z,4.3
2018-03-14T02:14:28.351Z,4.2
2018-03-14T02:25:14.163Z,4.1
2018-03-14T02:35:57.773Z,4.1
2018-03-14T02:46:12.234Z,4.1
2018-03-14T02:56:26.565Z,4.1
2018-03-14T03:16:55.254Z,4.0
2018-03-14T03:27:09.153Z,3.9
2018-03-14T03:37:23.063Z,3.9
2018-03-14T03:47:36.845Z,3.9
2018-03-14T03:57:50.577Z,3.8
2018-03-14T04:08:03.081Z,3.8
2018-03-14T04:19:21.140Z,3.8
2018-03-14T04:29:45.599Z,3.7
2018-03-14T04:40:31.701Z,3.7
2018-03-14T04:51:17.190Z,3.6
2018-03-14T05:02:03.501Z,3.4
2018-03-14T05:12:17.367Z,3.4
2018-03-14T05:23:03.041Z,3.2
2018-03-14T05:33:16.902Z,3.2
2018-03-14T05:43:30.454Z,3.1
2018-03-14T05:53:44.546Z,3.1
2018-03-14T06:03:57.337Z,3.1
2018-03-14T06:14:10.963Z,3.1
2018-03-14T06:24:55.689Z,3.1
2018-03-14T06:35:09.051Z,3.1
2018-03-14T06:45:53.941Z,3.2
2018-03-14T06:56:38.683Z,3.3
2018-03-14T07:07:23.366Z,3.4
2018-03-14T07:18:08.217Z,3.5
2018-03-14T07:28:21.481Z,3.5
2018-03-14T07:38:35.040Z,3.6
2018-03-14T07:48:50.033Z,3.8
2018-03-14T07:59:03.365Z,4.0
2018-03-14T08:09:14.526Z,4.2
2018-03-14T08:19:25.800Z,4.5
2018-03-14T08:29:39.176Z,4.7
2018-03-14T08:39:53.184Z,5.0
2018-03-14T08:50:06.518Z,5.2
2018-03-14T09:00:19.620Z,5.4
2018-03-14T09:10:33.026Z,5.6
2018-03-14T09:21:18.283Z,5.9
2018-03-14T09:32:03.367Z,6.1
2018-03-14T09:42:14.987Z,6.1
2018-03-14T09:52:29.243Z,6.3
2018-03-14T10:02:40.316Z,6.5
2018-03-14T10:12:55.600Z,6.8
2018-03-14T10:23:08.904Z,7.1
2018-03-14T10:33:22.315Z,7.5
2018-03-14T10:43:33.700Z,7.9
2018-03-14T10:54:19.068Z,8.5
2018-03-14T11:04:32.964Z,8.5
2018-03-14T11:14:46.888Z,8.6
2018-03-14T11:25:01.126Z,8.8
2018-03-14T11:35:14.974Z,9.0
2018-03-14T11:45:28.320Z,9.3
2018-03-14T11:55:42.460Z,9.6
2018-03-14T12:05:55.853Z,9.8
2018-03-14T12:16:41.769Z,10.8
2018-03-14T12:27:55.145Z,11.7
2018-03-14T12:52:58.392Z,13.1
2018-03-14T13:03:37.514Z,13.1
2018-03-14T14:00:36.553Z,12.9
2018-03-14T14:16:15.363Z,13.0
2018-03-14T14:56:22.155Z,15.7
2018-03-14T15:06:37.645Z,15.7
2018-03-14T15:16:52.804Z,16.0
2018-03-14T15:27:07.338Z,16.2
2018-03-14T15:37:21.174Z,16.4
2018-03-14T15:47:38.077Z,16.5
2018-03-14T15:57:51.803Z,16.3
2018-03-14T16:08:06.755Z,16.0
2018-03-14T16:18:18.774Z,15.4
2018-03-14T16:28:33.007Z,14.8
2018-03-14T16:38:46.881Z,14.1
2018-03-14T16:49:01.822Z,13.4
2018-03-14T16:59:16.296Z,12.8
2018-03-14T17:09:30.586Z,12.1
2018-03-14T17:19:45.057Z,11.5
2018-03-14T17:30:46.395Z,10.9
2018-03-14T17:41:01.856Z,10.4
2018-03-14T17:51:15.506Z,9.8
2018-03-14T18:02:01.152Z,8.7
2018-03-14T18:15:59.007Z,8.2
2018-03-14T18:26:50.303Z,7.6
2018-03-14T18:55:37.520Z,6.6
2018-03-14T19:22:41.898Z,5.7
2018-03-14T20:11:02.715Z,4.6
2018-03-14T20:21:47.255Z,4.4
2018-03-14T20:32:00.433Z,4.4
2018-03-14T20:42:45.632Z,3.9
2018-03-14T20:53:31.601Z,3.7
2018-03-14T21:03:43.795Z,3.7
2018-03-14T21:13:58.040Z,3.5
2018-03-14T21:24:13.834Z,3.3
2018-03-14T21:34:27.297Z,3.1
2018-03-14T21:45:12.088Z,2.8
2018-03-14T21:55:56.853Z,2.7
2018-03-14T22:06:41.930Z,2.5
2018-03-14T22:17:27.187Z,2.4
2018-03-14T22:27:40.925Z,2.4
2018-03-14T22:37:55.046Z,2.2
2018-03-14T22:48:40.748Z,2.0
2018-03-14T22:59:25.690Z,1.9
2018-03-14T23:10:10.747Z,1.8
2018-03-14T23:20:56.244Z,1.7
2018-03-14T23:31:14.640Z,1.7
2018-03-14T23:41:34.162Z,1.6
2018-03-14T23:51:47.710Z,1.5
